sensor_id;sensor_type;location;lat;lon;timestamp;P1;durP1;ratioP1;P2;durP2;ratioP2
74457;SDS011;62896;51.032;3.712;2022-10-04T00:01:11;13.9;;;6.7;;
74457;SDS011;62896;51.032;3.712;2022-10-04T00:04:31;13.9;;;6.7;;
74457;SDS011;62896;51.032;3.712;2022-10-04T00:07:51;13.9;;;6.7;;
74457;SDS011;62896;51.032;3.712;2022-10-04T00:11:13;13.9;;;6.7;;
74457;SDS011;62896;51.032;3.712;2022-10-04T00:14:32;13.9;;;6.7;;
74457;SDS011;62896;51.032;3.712;2022-10-04T00:17:59;13.9;;;6.7;;
74457;SDS011;62896;51.032;3.712;2022-10-04T00:21:11;16.9;;;6.7;;
74457;SDS011;62896;51.032;3.712;2022-10-04T00:24:32;16.9;;;6.7;;
74457;SDS011;62896;51.032;3.712;2022-10-04T00:28:15;16.9;;;6.7;;
74457;SDS011;62896;51.032;3.712;2022-10-04T00:31:13;16.9;;;6.7;;
74457;SDS011;62896;51.032;3.712;2022-10-04T00:34:47;16.9;;;6.7;;
74457;SDS011;62896;51.032;3.712;2022-10-04T00:37:53;16.9;;;6.7;;
74457;SDS011;62896;51.032;3.712;2022-10-04T00:41:11;16.9;;;6.7;;
74457;SDS011;62896;51.032;3.712;2022-10-04T00:44:32;16.9;;;6.7;;
74457;SDS011;62896;51.032;3.712;2022-10-04T00:47:55;18.7;;;7.8;;
74457;SDS011;62896;51.032;3.712;2022-10-04T00:51:12;18.7;;;7.8;;
74457;SDS011;62896;51.032;3.712;2022-10-04T00:54:31;18.7;;;7.8;;
74457;SDS011;62896;51.032;3.712;2022-10-04T00:57:52;18.7;;;7.8;;
74457;SDS011;62896;51.032;3.712;2022-10-04T01:01:11;18.7;;;7.8;;
74457;SDS011;62896;51.032;3.712;2022-10-04T01:04:35;18.7;;;7.8;;
74457;SDS011;62896;51.032;3.712;2022-10-04T01:07:52;18.7;;;7.8;;
74457;SDS011;62896;51.032;3.712;2022-10-04T01:11:12;19.6;;;8.9;;
74457;SDS011;62896;51.032;3.712;2022-10-04T01:14:33;19.6;;;8.9;;
74457;SDS011;62896;51.032;3.712;2022-10-04T01:18:08;19.6;;;8.9;;
74457;SDS011;62896;51.032;3.712;2022-10-04T01:21:20;19.6;;;8.9;;
74457;SDS011;62896;51.032;3.712;2022-10-04T01:24:32;19.6;;;8.9;;
74457;SDS011;62896;51.032;3.712;2022-10-04T01:27:51;19.6;;;8.9;;
74457;SDS011;62896;51.032;3.712;2022-10-04T01:31:11;19.6;;;8.9;;
74457;SDS011;62896;51.032;3.712;2022-10-04T01:34:31;19.6;;;8.9;;
74457;SDS011;62896;51.032;3.712;2022-10-04T01:37:51;16.9;;;8.6;;
74457;SDS011;62896;51.032;3.712;2022-10-04T01:41:11;16.9;;;8.6;;
74457;SDS011;62896;51.032;3.712;2022-10-04T01:44:32;16.9;;;8.6;;
74457;SDS011;62896;51.032;3.712;2022-10-04T01:47:51;16.9;;;8.6;;
74457;SDS011;62896;51.032;3.712;2022-10-04T01:51:12;16.9;;;8.6;;
74457;SDS011;62896;51.032;3.712;2022-10-04T01:54:32;16.9;;;8.6;;
74457;SDS011;62896;51.032;3.712;2022-10-04T01:57:51;16.9;;;8.6;;
74457;SDS011;62896;51.032;3.712;2022-10-04T02:01:12;20.2;;;9.9;;
74457;SDS011;62896;51.032;3.712;2022-10-04T02:04:31;20.2;;;9.9;;
74457;SDS011;62896;51.032;3.712;2022-10-04T02:07:51;20.2;;;9.9;;
74457;SDS011;62896;51.032;3.712;2022-10-04T02:11:15;20.2;;;9.9;;
74457;SDS011;62896;51.032;3.712;2022-10-04T02:14:32;20.2;;;9.9;;
74457;SDS011;62896;51.032;3.712;2022-10-04T02:17:51;20.2;;;9.9;;
74457;SDS011;62896;51.032;3.712;2022-10-04T02:21:11;20.2;;;9.9;;
74457;SDS011;62896;51.032;3.712;2022-10-04T02:24:31;20.2;;;9.9;;
74457;SDS011;62896;51.032;3.712;2022-10-04T02:27:51;25.2;;;11.8;;
74457;SDS011;62896;51.032;3.712;2022-10-04T02:31:11;25.2;;;11.8;;
74457;SDS011;62896;51.032;3.712;2022-10-04T02:34:31;25.2;;;11.8;;
74457;SDS011;62896;51.032;3.712;2022-10-04T02:37:53;25.2;;;11.8;;
74457;SDS011;62896;51.032;3.712;2022-10-04T02:41:13;25.2;;;11.8;;
74457;SDS011;62896;51.032;3.712;2022-10-04T02:44:32;25.2;;;11.8;;
74457;SDS011;62896;51.032;3.712;2022-10-04T02:47:52;25.2;;;11.8;;
74457;SDS011;62896;51.032;3.712;2022-10-04T02:51:13;23.6;;;12.1;;
74457;SDS011;62896;51.032;3.712;2022-10-04T02:54:32;23.6;;;12.1;;
74457;SDS011;62896;51.032;3.712;2022-10-04T02:57:51;23.6;;;12.1;;
74457;SDS011;62896;51.032;3.712;2022-10-04T03:01:14;23.6;;;12.1;;
74457;SDS011;62896;51.032;3.712;2022-10-04T03:04:32;23.6;;;12.1;;
74457;SDS011;62896;51.032;3.712;2022-10-04T03:07:51;23.6;;;12.1;;
74457;SDS011;62896;51.032;3.712;2022-10-04T03:11:11;23.6;;;12.1;;
74457;SDS011;62896;51.032;3.712;2022-10-04T03:14:31;23.6;;;12.1;;
74457;SDS011;62896;51.032;3.712;2022-10-04T03:17:51;17.1;;;10.2;;
74457;SDS011;62896;51.032;3.712;2022-10-04T03:21:11;17.1;;;10.2;;
74457;SDS011;62896;51.032;3.712;2022-10-04T03:24:31;17.1;;;10.2;;
74457;SDS011;62896;51.032;3.712;2022-10-04T03:27:51;17.1;;;10.2;;
74457;SDS011;62896;51.032;3.712;2022-10-04T03:31:11;17.1;;;10.2;;
74457;SDS011;62896;51.032;3.712;2022-10-04T03:34:32;17.1;;;10.2;;
74457;SDS011;62896;51.032;3.712;2022-10-04T03:37:51;17.1;;;10.2;;
74457;SDS011;62896;51.032;3.712;2022-10-04T03:41:11;16.6;;;10.9;;
74457;SDS011;62896;51.032;3.712;2022-10-04T03:44:31;16.6;;;10.9;;
74457;SDS011;62896;51.032;3.712;2022-10-04T03:47:51;16.6;;;10.9;;
74457;SDS011;62896;51.032;3.712;2022-10-04T03:51:12;16.6;;;10.9;;
74457;SDS011;62896;51.032;3.712;2022-10-04T03:54:31;16.6;;;10.9;;
74457;SDS011;62896;51.032;3.712;2022-10-04T03:57:51;16.6;;;10.9;;
74457;SDS011;62896;51.032;3.712;2022-10-04T04:01:12;16.6;;;10.9;;
74457;SDS011;62896;51.032;3.712;2022-10-04T04:04:34;16.6;;;10.9;;
74457;SDS011;62896;51.032;3.712;2022-10-04T04:07:53;23.5;;;11.9;;
74457;SDS011;62896;51.032;3.712;2022-10-04T04:11:13;23.5;;;11.9;;
74457;SDS011;62896;51.032;3.712;2022-10-04T04:14:31;23.5;;;11.9;;
74457;SDS011;62896;51.032;3.712;2022-10-04T04:17:51;23.5;;;11.9;;
74457;SDS011;62896;51.032;3.712;2022-10-04T04:21:11;23.5;;;11.9;;
74457;SDS011;62896;51.032;3.712;2022-10-04T04:24:31;23.5;;;11.9;;
74457;SDS011;62896;51.032;3.712;2022-10-04T04:27:52;23.5;;;11.9;;
74457;SDS011;62896;51.032;3.712;2022-10-04T04:31:12;20.7;;;12;;
74457;SDS011;62896;51.032;3.712;2022-10-04T04:34:31;20.7;;;12;;
74457;SDS011;62896;51.032;3.712;2022-10-04T04:38:01;20.7;;;12;;
74457;SDS011;62896;51.032;3.712;2022-10-04T04:41:11;20.7;;;12;;
74457;SDS011;62896;51.032;3.712;2022-10-04T04:44:31;20.7;;;12;;
74457;SDS011;62896;51.032;3.712;2022-10-04T04:47:52;20.7;;;12;;
74457;SDS011;62896;51.032;3.712;2022-10-04T04:51:11;20.7;;;12;;
74457;SDS011;62896;51.032;3.712;2022-10-04T04:54:31;20.7;;;12;;
74457;SDS011;62896;51.032;3.712;2022-10-04T04:57:52;19.9;;;10.9;;
74457;SDS011;62896;51.032;3.712;2022-10-04T05:01:14;19.9;;;10.9;;
74457;SDS011;62896;51.032;3.712;2022-10-04T05:04:31;19.9;;;10.9;;
74457;SDS011;62896;51.032;3.712;2022-10-04T05:08:02;19.9;;;10.9;;
74457;SDS011;62896;51.032;3.712;2022-10-04T05:11:11;19.9;;;10.9;;
74457;SDS011;62896;51.032;3.712;2022-10-04T05:14:31;19.9;;;10.9;;
74457;SDS011;62896;51.032;3.712;2022-10-04T05:17:51;19.9;;;10.9;;
74457;SDS011;62896;51.032;3.712;2022-10-04T05:21:12;19.5;;;11.6;;
74457;SDS011;62896;51.032;3.712;2022-10-04T05:24:32;19.5;;;11.6;;
74457;SDS011;62896;51.032;3.712;2022-10-04T05:27:51;19.5;;;11.6;;
74457;SDS011;62896;51.032;3.712;2022-10-04T05:31:22;19.5;;;11.6;;
74457;SDS011;62896;51.032;3.712;2022-10-04T05:34:35;19.5;;;11.6;;
74457;SDS011;62896;51.032;3.712;2022-10-04T05:37:53;19.5;;;11.6;;
74457;SDS011;62896;51.032;3.712;2022-10-04T05:41:12;19.5;;;11.6;;
74457;SDS011;62896;51.032;3.712;2022-10-04T05:44:34;19.5;;;11.6;;
74457;SDS011;62896;51.032;3.712;2022-10-04T05:47:51;20.4;;;12;;
74457;SDS011;62896;51.032;3.712;2022-10-04T05:51:11;20.4;;;12;;
74457;SDS011;62896;51.032;3.712;2022-10-04T05:54:32;20.4;;;12;;
74457;SDS011;62896;51.032;3.712;2022-10-04T05:57:55;20.4;;;12;;
74457;SDS011;62896;51.032;3.712;2022-10-04T06:01:15;20.4;;;12;;
74457;SDS011;62896;51.032;3.712;2022-10-04T06:04:37;20.4;;;12;;
74457;SDS011;62896;51.032;3.712;2022-10-04T06:07:52;20.4;;;12;;
74457;SDS011;62896;51.032;3.712;2022-10-04T06:11:14;20.1;;;12.1;;
74457;SDS011;62896;51.032;3.712;2022-10-04T06:14:34;20.1;;;12.1;;
74457;SDS011;62896;51.032;3.712;2022-10-04T06:17:55;20.1;;;12.1;;
74457;SDS011;62896;51.032;3.712;2022-10-04T06:21:15;20.1;;;12.1;;
74457;SDS011;62896;51.032;3.712;2022-10-04T06:24:31;20.1;;;12.1;;
74457;SDS011;62896;51.032;3.712;2022-10-04T06:27:52;20.1;;;12.1;;
74457;SDS011;62896;51.032;3.712;2022-10-04T06:34:35;20.1;;;12.1;;
74457;SDS011;62896;51.032;3.712;2022-10-04T06:37:59;29.3;;;13.9;;
74457;SDS011;62896;51.032;3.712;2022-10-04T06:41:15;29.3;;;13.9;;
74457;SDS011;62896;51.032;3.712;2022-10-04T06:44:35;29.3;;;13.9;;
74457;SDS011;62896;51.032;3.712;2022-10-04T06:47:56;29.3;;;13.9;;
74457;SDS011;62896;51.032;3.712;2022-10-04T06:51:13;29.3;;;13.9;;
74457;SDS011;62896;51.032;3.712;2022-10-04T06:54:35;29.3;;;13.9;;
74457;SDS011;62896;51.032;3.712;2022-10-04T06:57:54;29.3;;;13.9;;
74457;SDS011;62896;51.032;3.712;2022-10-04T07:01:14;27.6;;;12.6;;
74457;SDS011;62896;51.032;3.712;2022-10-04T07:04:32;27.6;;;12.6;;
74457;SDS011;62896;51.032;3.712;2022-10-04T07:07:53;27.6;;;12.6;;
74457;SDS011;62896;51.032;3.712;2022-10-04T07:11:11;27.6;;;12.6;;
74457;SDS011;62896;51.032;3.712;2022-10-04T07:14:31;27.6;;;12.6;;
74457;SDS011;62896;51.032;3.712;2022-10-04T07:17:51;27.6;;;12.6;;
74457;SDS011;62896;51.032;3.712;2022-10-04T07:21:11;27.6;;;12.6;;
74457;SDS011;62896;51.032;3.712;2022-10-04T07:24:36;27.6;;;12.6;;
74457;SDS011;62896;51.032;3.712;2022-10-04T07:27:52;33.7;;;12.1;;
74457;SDS011;62896;51.032;3.712;2022-10-04T07:31:12;33.7;;;12.1;;
74457;SDS011;62896;51.032;3.712;2022-10-04T07:34:31;33.7;;;12.1;;
74457;SDS011;62896;51.032;3.712;2022-10-04T07:37:52;33.7;;;12.1;;
74457;SDS011;62896;51.032;3.712;2022-10-04T07:41:12;33.7;;;12.1;;
74457;SDS011;62896;51.032;3.712;2022-10-04T07:44:32;33.7;;;12.1;;
74457;SDS011;62896;51.032;3.712;2022-10-04T07:47:58;33.7;;;12.1;;
74457;SDS011;62896;51.032;3.712;2022-10-04T07:51:13;26.1;;;11.5;;
74457;SDS011;62896;51.032;3.712;2022-10-04T07:54:34;26.1;;;11.5;;
74457;SDS011;62896;51.032;3.712;2022-10-04T07:57:55;26.1;;;11.5;;
74457;SDS011;62896;51.032;3.712;2022-10-04T18:17:52;7.8;;;3.9;;
74457;SDS011;62896;51.032;3.712;2022-10-04T18:21:19;7.8;;;3.9;;
74457;SDS011;62896;51.032;3.712;2022-10-04T18:24:31;7.8;;;3.9;;
74457;SDS011;62896;51.032;3.712;2022-10-04T18:27:51;7.8;;;3.9;;
74457;SDS011;62896;51.032;3.712;2022-10-04T18:31:17;7.8;;;3.9;;
74457;SDS011;62896;51.032;3.712;2022-10-04T18:34:31;7.8;;;3.9;;
74457;SDS011;62896;51.032;3.712;2022-10-04T18:37:51;7.8;;;3.9;;
74457;SDS011;62896;51.032;3.712;2022-10-04T18:41:15;8.2;;;4.6;;
74457;SDS011;62896;51.032;3.712;2022-10-04T18:44:40;8.2;;;4.6;;
74457;SDS011;62896;51.032;3.712;2022-10-04T18:47:51;8.2;;;4.6;;
74457;SDS011;62896;51.032;3.712;2022-10-04T18:51:20;8.2;;;4.6;;
74457;SDS011;62896;51.032;3.712;2022-10-04T18:54:31;8.2;;;4.6;;
74457;SDS011;62896;51.032;3.712;2022-10-04T18:57:52;8.2;;;4.6;;
74457;SDS011;62896;51.032;3.712;2022-10-04T19:01:26;8.2;;;4.6;;
74457;SDS011;62896;51.032;3.712;2022-10-04T19:04:41;8.2;;;4.6;;
74457;SDS011;62896;51.032;3.712;2022-10-04T19:07:53;7.3;;;4.7;;
74457;SDS011;62896;51.032;3.712;2022-10-04T19:11:11;7.3;;;4.7;;
74457;SDS011;62896;51.032;3.712;2022-10-04T19:14:32;7.3;;;4.7;;
74457;SDS011;62896;51.032;3.712;2022-10-04T19:17:53;7.3;;;4.7;;
74457;SDS011;62896;51.032;3.712;2022-10-04T19:21:13;7.3;;;4.7;;
74457;SDS011;62896;51.032;3.712;2022-10-04T19:24:35;7.3;;;4.7;;
74457;SDS011;62896;51.032;3.712;2022-10-04T19:27:54;7.3;;;4.7;;
74457;SDS011;62896;51.032;3.712;2022-10-04T19:31:13;10.4;;;6.1;;
74457;SDS011;62896;51.032;3.712;2022-10-04T19:34:34;10.4;;;6.1;;
74457;SDS011;62896;51.032;3.712;2022-10-04T19:37:53;10.4;;;6.1;;
74457;SDS011;62896;51.032;3.712;2022-10-04T19:41:12;10.4;;;6.1;;
74457;SDS011;62896;51.032;3.712;2022-10-04T19:44:34;10.4;;;6.1;;
74457;SDS011;62896;51.032;3.712;2022-10-04T19:47:51;10.4;;;6.1;;
74457;SDS011;62896;51.032;3.712;2022-10-04T19:51:11;10.4;;;6.1;;
74457;SDS011;62896;51.032;3.712;2022-10-04T19:54:32;10.4;;;6.1;;
74457;SDS011;62896;51.032;3.712;2022-10-04T19:57:52;8.8;;;5.1;;
74457;SDS011;62896;51.032;3.712;2022-10-04T20:01:11;8.8;;;5.1;;
74457;SDS011;62896;51.032;3.712;2022-10-04T20:04:31;8.8;;;5.1;;
74457;SDS011;62896;51.032;3.712;2022-10-04T20:07:52;8.8;;;5.1;;
74457;SDS011;62896;51.032;3.712;2022-10-04T20:11:12;8.8;;;5.1;;
74457;SDS011;62896;51.032;3.712;2022-10-04T20:14:42;8.8;;;5.1;;
74457;SDS011;62896;51.032;3.712;2022-10-04T20:17:51;8.8;;;5.1;;
74457;SDS011;62896;51.032;3.712;2022-10-04T20:21:17;8.5;;;5.2;;
74457;SDS011;62896;51.032;3.712;2022-10-04T20:24:47;8.5;;;5.2;;
74457;SDS011;62896;51.032;3.712;2022-10-04T20:27:58;8.5;;;5.2;;
74457;SDS011;62896;51.032;3.712;2022-10-04T20:31:50;8.5;;;5.2;;
74457;SDS011;62896;51.032;3.712;2022-10-04T20:34:32;8.5;;;5.2;;
74457;SDS011;62896;51.032;3.712;2022-10-04T20:38:28;8.5;;;5.2;;
74457;SDS011;62896;51.032;3.712;2022-10-04T20:41:40;8.5;;;5.2;;
74457;SDS011;62896;51.032;3.712;2022-10-04T20:44:39;8.5;;;5.2;;
74457;SDS011;62896;51.032;3.712;2022-10-04T20:47:51;8.2;;;5.3;;
74457;SDS011;62896;51.032;3.712;2022-10-04T20:51:13;8.2;;;5.3;;
74457;SDS011;62896;51.032;3.712;2022-10-04T20:54:31;8.2;;;5.3;;
74457;SDS011;62896;51.032;3.712;2022-10-04T20:57:51;8.2;;;5.3;;
74457;SDS011;62896;51.032;3.712;2022-10-04T21:01:21;8.2;;;5.3;;
74457;SDS011;62896;51.032;3.712;2022-10-04T21:04:31;8.2;;;5.3;;
74457;SDS011;62896;51.032;3.712;2022-10-04T21:08:10;8.2;;;5.3;;
74457;SDS011;62896;51.032;3.712;2022-10-04T21:11:15;8.6;;;5.6;;
74457;SDS011;62896;51.032;3.712;2022-10-04T21:14:32;8.6;;;5.6;;
74457;SDS011;62896;51.032;3.712;2022-10-04T21:18:00;8.6;;;5.6;;
74457;SDS011;62896;51.032;3.712;2022-10-04T21:21:11;8.6;;;5.6;;
74457;SDS011;62896;51.032;3.712;2022-10-04T21:24:33;8.6;;;5.6;;
74457;SDS011;62896;51.032;3.712;2022-10-04T21:27:51;8.6;;;5.6;;
74457;SDS011;62896;51.032;3.712;2022-10-04T21:31:11;8.6;;;5.6;;
74457;SDS011;62896;51.032;3.712;2022-10-04T21:34:31;8.6;;;5.6;;
74457;SDS011;62896;51.032;3.712;2022-10-04T21:37:51;10.4;;;6.7;;
74457;SDS011;62896;51.032;3.712;2022-10-04T21:41:11;10.4;;;6.7;;
74457;SDS011;62896;51.032;3.712;2022-10-04T21:44:31;10.4;;;6.7;;
74457;SDS011;62896;51.032;3.712;2022-10-04T21:47:51;10.4;;;6.7;;
74457;SDS011;62896;51.032;3.712;2022-10-04T21:51:11;10.4;;;6.7;;
74457;SDS011;62896;51.032;3.712;2022-10-04T21:54:31;10.4;;;6.7;;
74457;SDS011;62896;51.032;3.712;2022-10-04T21:57:51;10.4;;;6.7;;
74457;SDS011;62896;51.032;3.712;2022-10-04T22:01:11;10.4;;;6;;
74457;SDS011;62896;51.032;3.712;2022-10-04T22:04:31;10.4;;;6;;
74457;SDS011;62896;51.032;3.712;2022-10-04T22:07:51;10.4;;;6;;
74457;SDS011;62896;51.032;3.712;2022-10-04T22:11:11;10.4;;;6;;
74457;SDS011;62896;51.032;3.712;2022-10-04T22:14:31;10.4;;;6;;
74457;SDS011;62896;51.032;3.712;2022-10-04T22:17:51;10.4;;;6;;
74457;SDS011;62896;51.032;3.712;2022-10-04T22:21:11;10.4;;;6;;
74457;SDS011;62896;51.032;3.712;2022-10-04T22:24:37;10.4;;;6;;
74457;SDS011;62896;51.032;3.712;2022-10-04T22:27:51;11.1;;;6.9;;
74457;SDS011;62896;51.032;3.712;2022-10-04T22:31:11;11.1;;;6.9;;
74457;SDS011;62896;51.032;3.712;2022-10-04T22:34:31;11.1;;;6.9;;
74457;SDS011;62896;51.032;3.712;2022-10-04T22:37:51;11.1;;;6.9;;
74457;SDS011;62896;51.032;3.712;2022-10-04T22:41:11;11.1;;;6.9;;
74457;SDS011;62896;51.032;3.712;2022-10-04T22:44:33;11.1;;;6.9;;
74457;SDS011;62896;51.032;3.712;2022-10-04T22:47:51;11.1;;;6.9;;
74457;SDS011;62896;51.032;3.712;2022-10-04T22:51:11;11;;;7.1;;
74457;SDS011;62896;51.032;3.712;2022-10-04T22:54:32;11;;;7.1;;
74457;SDS011;62896;51.032;3.712;2022-10-04T22:57:51;11;;;7.1;;
74457;SDS011;62896;51.032;3.712;2022-10-04T23:01:12;11;;;7.1;;
74457;SDS011;62896;51.032;3.712;2022-10-04T23:04:31;11;;;7.1;;
74457;SDS011;62896;51.032;3.712;2022-10-04T23:07:51;11;;;7.1;;
74457;SDS011;62896;51.032;3.712;2022-10-04T23:11:11;11;;;7.1;;
74457;SDS011;62896;51.032;3.712;2022-10-04T23:14:33;11;;;7.1;;
74457;SDS011;62896;51.032;3.712;2022-10-04T23:17:51;11.3;;;6.2;;
74457;SDS011;62896;51.032;3.712;2022-10-04T23:21:14;11.3;;;6.2;;
74457;SDS011;62896;51.032;3.712;2022-10-04T23:24:31;11.3;;;6.2;;
74457;SDS011;62896;51.032;3.712;2022-10-04T23:27:51;11.3;;;6.2;;
74457;SDS011;62896;51.032;3.712;2022-10-04T23:31:12;11.3;;;6.2;;
74457;SDS011;62896;51.032;3.712;2022-10-04T23:34:31;11.3;;;6.2;;
74457;SDS011;62896;51.032;3.712;2022-10-04T23:37:51;11.3;;;6.2;;
74457;SDS011;62896;51.032;3.712;2022-10-04T23:41:11;8.6;;;5.8;;
74457;SDS011;62896;51.032;3.712;2022-10-04T23:44:32;8.6;;;5.8;;
74457;SDS011;62896;51.032;3.712;2022-10-04T23:47:52;8.6;;;5.8;;
74457;SDS011;62896;51.032;3.712;2022-10-04T23:51:11;8.6;;;5.8;;
74457;SDS011;62896;51.032;3.712;2022-10-04T23:54:31;8.6;;;5.8;;
74457;SDS011;62896;51.032;3.712;2022-10-04T23:57:51;8.6;;;5.8;;
